sensor_id;sensor_type;location;lat;lon;timestamp;pressure;altitude;pressure_sealevel;temperature;humidity
62725;BME280;49026;52.600;4.694;2023-04-05T00:00:54;102616.13;;;0.89;51.66
62725;BME280;49026;52.600;4.694;2023-04-05T00:03:19;102621.25;;;0.88;51.83
62725;BME280;49026;52.600;4.694;2023-04-05T00:05:45;102621.31;;;0.89;51.78
62725;BME280;49026;52.600;4.694;2023-04-05T00:08:14;102616.03;;;0.86;51.67
62725;BME280;49026;52.600;4.694;2023-04-05T00:10:50;102614.25;;;0.84;51.68
62725;BME280;49026;52.600;4.694;2023-04-05T00:13:15;102609.91;;;0.83;51.61
62725;BME280;49026;52.600;4.694;2023-04-05T00:15:41;102606.50;;;0.84;51.71
62725;BME280;49026;52.600;4.694;2023-04-05T00:18:06;102599.66;;;0.86;52.03
62725;BME280;49026;52.600;4.694;2023-04-05T00:20:32;102600.41;;;0.83;51.50
62725;BME280;49026;52.600;4.694;2023-04-05T00:23:00;102596.16;;;0.84;51.91
62725;BME280;49026;52.600;4.694;2023-04-05T00:25:25;102602.28;;;0.87;52.24
62725;BME280;49026;52.600;4.694;2023-04-05T00:27:53;102586.84;;;0.90;52.20
62725;BME280;49026;52.600;4.694;2023-04-05T00:30:18;102591.28;;;0.96;52.33
62725;BME280;49026;52.600;4.694;2023-04-05T00:32:47;102594.09;;;1.04;51.88
62725;BME280;49026;52.600;4.694;2023-04-05T00:35:13;102585.75;;;1.14;52.12
62725;BME280;49026;52.600;4.694;2023-04-05T00:37:41;102582.53;;;1.23;52.17
62725;BME280;49026;52.600;4.694;2023-04-05T00:40:07;102582.66;;;1.27;52.18
62725;BME280;49026;52.600;4.694;2023-04-05T00:42:33;102581.78;;;1.28;51.81
62725;BME280;49026;52.600;4.694;2023-04-05T00:45:01;102576.66;;;1.30;52.37
62725;BME280;49026;52.600;4.694;2023-04-05T00:47:27;102579.28;;;1.32;52.77
62725;BME280;49026;52.600;4.694;2023-04-05T00:49:52;102578.59;;;1.37;54.09
62725;BME280;49026;52.600;4.694;2023-04-05T00:52:18;102576.13;;;1.43;53.34
62725;BME280;49026;52.600;4.694;2023-04-05T00:54:50;102566.72;;;1.45;53.27
62725;BME280;49026;52.600;4.694;2023-04-05T00:57:18;102575.41;;;1.47;52.71
62725;BME280;49026;52.600;4.694;2023-04-05T00:59:44;102566.72;;;1.47;52.60
62725;BME280;49026;52.600;4.694;2023-04-05T01:02:17;102563.22;;;1.45;52.19
62725;BME280;49026;52.600;4.694;2023-04-05T01:04:46;102564.91;;;1.43;52.55
62725;BME280;49026;52.600;4.694;2023-04-05T01:07:30;102563.97;;;1.39;52.46
62725;BME280;49026;52.600;4.694;2023-04-05T01:10:08;102564.69;;;1.35;52.55
62725;BME280;49026;52.600;4.694;2023-04-05T01:12:37;102560.28;;;1.31;52.23
62725;BME280;49026;52.600;4.694;2023-04-05T01:15:06;102553.25;;;1.27;52.10
62725;BME280;49026;52.600;4.694;2023-04-05T01:17:32;102558.53;;;1.30;52.91
62725;BME280;49026;52.600;4.694;2023-04-05T01:20:04;102553.34;;;1.30;53.86
62725;BME280;49026;52.600;4.694;2023-04-05T01:31:28;102553.22;;;1.24;54.00
62725;BME280;49026;52.600;4.694;2023-04-05T01:36:44;102540.09;;;1.18;53.27
62725;BME280;49026;52.600;4.694;2023-04-05T01:39:14;102531.50;;;1.19;54.39
62725;BME280;49026;52.600;4.694;2023-04-05T01:41:41;102534.09;;;1.19;53.72
62725;BME280;49026;52.600;4.694;2023-04-05T01:44:07;102531.50;;;1.19;53.85
62725;BME280;49026;52.600;4.694;2023-04-05T01:46:32;102528.91;;;1.19;53.78
62725;BME280;49026;52.600;4.694;2023-04-05T01:48:58;102523.69;;;1.17;53.23
62725;BME280;49026;52.600;4.694;2023-04-05T01:51:23;102521.84;;;1.13;52.77
62725;BME280;49026;52.600;4.694;2023-04-05T01:53:49;102517.47;;;1.10;52.70
62725;BME280;49026;52.600;4.694;2023-04-05T01:56:15;102517.31;;;1.04;52.69
62725;BME280;49026;52.600;4.694;2023-04-05T01:58:40;102515.47;;;1.00;52.28
62725;BME280;49026;52.600;4.694;2023-04-05T02:01:05;102517.06;;;0.95;52.43
62725;BME280;49026;52.600;4.694;2023-04-05T02:03:31;102514.31;;;0.89;52.74
62725;BME280;49026;52.600;4.694;2023-04-05T02:05:56;102504.72;;;0.85;52.40
62725;BME280;49026;52.600;4.694;2023-04-05T02:08:24;102504.66;;;0.83;52.56
62725;BME280;49026;52.600;4.694;2023-04-05T02:10:52;102498.53;;;0.80;52.65
62725;BME280;49026;52.600;4.694;2023-04-05T02:13:17;102496.72;;;0.76;52.22
62725;BME280;49026;52.600;4.694;2023-04-05T02:15:49;102494.84;;;0.71;52.35
62725;BME280;49026;52.600;4.694;2023-04-05T02:18:15;102493.91;;;0.68;52.40
62725;BME280;49026;52.600;4.694;2023-04-05T02:20:48;102493.78;;;0.63;52.35
62725;BME280;49026;52.600;4.694;2023-04-05T02:23:13;102485.00;;;0.58;52.86
62725;BME280;49026;52.600;4.694;2023-04-05T02:25:39;102480.72;;;0.59;52.80
62725;BME280;49026;52.600;4.694;2023-04-05T02:28:04;102478.94;;;0.56;52.64
62725;BME280;49026;52.600;4.694;2023-04-05T02:30:31;102482.22;;;0.50;52.62
62725;BME280;49026;52.600;4.694;2023-04-05T02:32:57;102475.25;;;0.48;52.88
62725;BME280;49026;52.600;4.694;2023-04-05T02:35:22;102474.34;;;0.46;52.63
62725;BME280;49026;52.600;4.694;2023-04-05T02:37:48;102470.84;;;0.44;52.65
62725;BME280;49026;52.600;4.694;2023-04-05T02:40:13;102480.28;;;0.43;52.63
62725;BME280;49026;52.600;4.694;2023-04-05T02:42:40;102475.91;;;0.41;52.41
62725;BME280;49026;52.600;4.694;2023-04-05T02:45:05;102474.16;;;0.40;52.56
62725;BME280;49026;52.600;4.694;2023-04-05T02:47:32;102481.03;;;0.39;52.41
62725;BME280;49026;52.600;4.694;2023-04-05T02:49:58;102486.09;;;0.34;52.41
62725;BME280;49026;52.600;4.694;2023-04-05T02:52:26;102477.38;;;0.31;52.27
62725;BME280;49026;52.600;4.694;2023-04-05T02:54:51;102473.81;;;0.27;52.46
62725;BME280;49026;52.600;4.694;2023-04-05T02:57:17;102475.50;;;0.25;52.39
62725;BME280;49026;52.600;4.694;2023-04-05T02:59:42;102476.13;;;0.18;52.36
62725;BME280;49026;52.600;4.694;2023-04-05T03:02:09;102474.94;;;0.07;52.41
62725;BME280;49026;52.600;4.694;2023-04-05T03:04:37;102468.63;;;-0.03;52.18
62725;BME280;49026;52.600;4.694;2023-04-05T03:07:03;102466.56;;;-0.15;52.45
62725;BME280;49026;52.600;4.694;2023-04-05T03:09:29;102459.34;;;-0.25;52.45
62725;BME280;49026;52.600;4.694;2023-04-05T03:12:01;102464.25;;;-0.34;52.37
62725;BME280;49026;52.600;4.694;2023-04-05T03:14:31;102451.03;;;-0.44;52.72
62725;BME280;49026;52.600;4.694;2023-04-05T03:16:59;102456.13;;;-0.47;52.70
62725;BME280;49026;52.600;4.694;2023-04-05T03:19:25;102450.97;;;-0.47;52.96
62725;BME280;49026;52.600;4.694;2023-04-05T03:21:51;102439.69;;;-0.49;52.80
62725;BME280;49026;52.600;4.694;2023-04-05T03:24:20;102449.00;;;-0.54;52.56
62725;BME280;49026;52.600;4.694;2023-04-05T03:26:46;102451.41;;;-0.59;52.79
62725;BME280;49026;52.600;4.694;2023-04-05T03:29:11;102450.44;;;-0.62;52.65
62725;BME280;49026;52.600;4.694;2023-04-05T03:31:37;102440.91;;;-0.65;52.97
62725;BME280;49026;52.600;4.694;2023-04-05T03:34:03;102441.72;;;-0.66;52.39
62725;BME280;49026;52.600;4.694;2023-04-05T03:36:31;102445.13;;;-0.68;52.84
62725;BME280;49026;52.600;4.694;2023-04-05T03:39:06;102445.00;;;-0.71;52.53
62725;BME280;49026;52.600;4.694;2023-04-05T03:41:32;102441.53;;;-0.72;52.57
62725;BME280;49026;52.600;4.694;2023-04-05T03:43:58;102445.00;;;-0.71;52.09
62725;BME280;49026;52.600;4.694;2023-04-05T03:46:23;102440.72;;;-0.71;52.73
62725;BME280;49026;52.600;4.694;2023-04-05T03:48:48;102439.00;;;-0.70;52.32
62725;BME280;49026;52.600;4.694;2023-04-05T03:51:13;102435.50;;;-0.72;52.40
62725;BME280;49026;52.600;4.694;2023-04-05T03:53:39;102444.91;;;-0.75;52.64
62725;BME280;49026;52.600;4.694;2023-04-05T03:56:05;102437.06;;;-0.78;53.00
62725;BME280;49026;52.600;4.694;2023-04-05T03:58:31;102436.94;;;-0.81;52.59
62725;BME280;49026;52.600;4.694;2023-04-05T04:00:56;102430.97;;;-0.80;52.62
62725;BME280;49026;52.600;4.694;2023-04-05T04:03:21;102442.16;;;-0.79;52.72
62725;BME280;49026;52.600;4.694;2023-04-05T04:05:46;102428.34;;;-0.81;52.53
62725;BME280;49026;52.600;4.694;2023-04-05T04:08:14;102431.69;;;-0.84;52.69
62725;BME280;49026;52.600;4.694;2023-04-05T04:10:39;102437.69;;;-0.85;52.66
62725;BME280;49026;52.600;4.694;2023-04-05T04:13:05;102433.50;;;-0.81;52.76
62725;BME280;49026;52.600;4.694;2023-04-05T04:15:30;102426.63;;;-0.81;52.77
62725;BME280;49026;52.600;4.694;2023-04-05T04:17:58;102427.47;;;-0.82;52.65
62725;BME280;49026;52.600;4.694;2023-04-05T04:20:26;102426.53;;;-0.84;52.62
62725;BME280;49026;52.600;4.694;2023-04-05T04:22:54;102423.88;;;-0.85;52.68
62725;BME280;49026;52.600;4.694;2023-04-05T04:25:19;102423.88;;;-0.85;52.69
62725;BME280;49026;52.600;4.694;2023-04-05T04:27:45;102422.16;;;-0.86;52.31
62725;BME280;49026;52.600;4.694;2023-04-05T04:30:16;102427.31;;;-0.86;52.42
62725;BME280;49026;52.600;4.694;2023-04-05T04:32:42;102421.38;;;-0.84;52.33
62725;BME280;49026;52.600;4.694;2023-04-05T04:35:23;102421.41;;;-0.82;52.46
62725;BME280;49026;52.600;4.694;2023-04-05T04:37:59;102433.44;;;-0.83;53.13
62725;BME280;49026;52.600;4.694;2023-04-05T04:40:30;102426.56;;;-0.82;52.36
62725;BME280;49026;52.600;4.694;2023-04-05T04:43:15;102430.19;;;-0.77;53.15
62725;BME280;49026;52.600;4.694;2023-04-05T04:45:50;102426.88;;;-0.73;53.12
62725;BME280;49026;52.600;4.694;2023-04-05T04:48:19;102429.41;;;-0.75;52.86
62725;BME280;49026;52.600;4.694;2023-04-05T04:50:47;102428.59;;;-0.73;53.05
62725;BME280;49026;52.600;4.694;2023-04-05T04:53:14;102428.63;;;-0.72;52.95
62725;BME280;49026;52.600;4.694;2023-04-05T04:55:41;102424.47;;;-0.68;53.20
62725;BME280;49026;52.600;4.694;2023-04-05T04:58:08;102418.50;;;-0.66;56.94
62725;BME280;49026;52.600;4.694;2023-04-05T05:00:37;102420.47;;;-0.57;58.71
62725;BME280;49026;52.600;4.694;2023-04-05T05:03:02;102423.25;;;-0.51;59.30
62725;BME280;49026;52.600;4.694;2023-04-05T05:05:27;102427.66;;;-0.48;57.91
62725;BME280;49026;52.600;4.694;2023-04-05T05:07:53;102425.19;;;-0.44;56.69
62725;BME280;49026;52.600;4.694;2023-04-05T05:10:19;102435.72;;;-0.38;56.03
62725;BME280;49026;52.600;4.694;2023-04-05T05:12:45;102426.41;;;-0.32;55.91
62725;BME280;49026;52.600;4.694;2023-04-05T05:15:10;102428.31;;;-0.27;55.61
62725;BME280;49026;52.600;4.694;2023-04-05T05:17:38;102431.88;;;-0.23;55.26
62725;BME280;49026;52.600;4.694;2023-04-05T05:20:08;102429.44;;;-0.17;54.88
62725;BME280;49026;52.600;4.694;2023-04-05T05:22:38;102428.78;;;-0.11;54.25
62725;BME280;49026;52.600;4.694;2023-04-05T05:25:07;102430.59;;;-0.07;53.96
62725;BME280;49026;52.600;4.694;2023-04-05T05:27:33;102437.66;;;-0.02;53.75
62725;BME280;49026;52.600;4.694;2023-04-05T05:30:03;102439.63;;;0.07;53.87
62725;BME280;49026;52.600;4.694;2023-04-05T05:32:29;102444.19;;;0.16;53.60
62725;BME280;49026;52.600;4.694;2023-04-05T05:34:54;102440.88;;;0.22;53.45
62725;BME280;49026;52.600;4.694;2023-04-05T05:37:21;102438.53;;;0.29;53.26
62725;BME280;49026;52.600;4.694;2023-04-05T05:39:53;102439.53;;;0.34;53.35
62725;BME280;49026;52.600;4.694;2023-04-05T05:42:18;102440.53;;;0.40;53.55
62725;BME280;49026;52.600;4.694;2023-04-05T05:44:45;102445.03;;;0.45;53.83
62725;BME280;49026;52.600;4.694;2023-04-05T05:47:10;102438.31;;;0.52;53.73
62725;BME280;49026;52.600;4.694;2023-04-05T05:49:35;102435.84;;;0.58;53.57
62725;BME280;49026;52.600;4.694;2023-04-05T05:52:02;102428.34;;;0.67;53.62
62725;BME280;49026;52.600;4.694;2023-04-05T05:54:27;102440.69;;;0.78;53.98
62725;BME280;49026;52.600;4.694;2023-04-05T05:56:53;102423.72;;;0.89;53.98
62725;BME280;49026;52.600;4.694;2023-04-05T05:59:18;102434.38;;;1.01;54.09
62725;BME280;49026;52.600;4.694;2023-04-05T06:01:43;102429.50;;;1.14;54.43
62725;BME280;49026;52.600;4.694;2023-04-05T06:04:10;102429.81;;;1.26;54.42
62725;BME280;49026;52.600;4.694;2023-04-05T06:06:36;102432.78;;;1.43;56.05
62725;BME280;49026;52.600;4.694;2023-04-05T06:09:01;102436.63;;;1.60;57.18
62725;BME280;49026;52.600;4.694;2023-04-05T06:11:27;102439.63;;;1.77;59.82
62725;BME280;49026;52.600;4.694;2023-04-05T06:13:52;102431.38;;;1.97;60.00
62725;BME280;49026;52.600;4.694;2023-04-05T06:16:23;102433.56;;;2.19;60.61
62725;BME280;49026;52.600;4.694;2023-04-05T06:18:51;102430.53;;;2.42;59.09
62725;BME280;49026;52.600;4.694;2023-04-05T06:21:18;102437.03;;;2.64;60.69
62725;BME280;49026;52.600;4.694;2023-04-05T06:23:44;102419.22;;;2.84;58.99
62725;BME280;49026;52.600;4.694;2023-04-05T06:26:18;102426.50;;;3.07;58.79
62725;BME280;49026;52.600;4.694;2023-04-05T06:28:45;102432.00;;;3.25;63.16
62725;BME280;49026;52.600;4.694;2023-04-05T06:31:15;102428.75;;;3.40;65.39
62725;BME280;49026;52.600;4.694;2023-04-05T06:33:42;102428.13;;;3.55;67.56
62725;BME280;49026;52.600;4.694;2023-04-05T06:36:08;102430.97;;;3.74;67.95
62725;BME280;49026;52.600;4.694;2023-04-05T06:38:35;102430.31;;;3.90;65.85
62725;BME280;49026;52.600;4.694;2023-04-05T06:41:01;102421.94;;;4.13;64.15
62725;BME280;49026;52.600;4.694;2023-04-05T06:43:34;102427.38;;;4.33;68.04
62725;BME280;49026;52.600;4.694;2023-04-05T06:45:59;102417.97;;;4.45;64.94
62725;BME280;49026;52.600;4.694;2023-04-05T06:48:28;102422.41;;;4.57;66.38
62725;BME280;49026;52.600;4.694;2023-04-05T06:50:57;102423.41;;;4.70;64.81
62725;BME280;49026;52.600;4.694;2023-04-05T06:53:23;102417.41;;;4.79;64.67
62725;BME280;49026;52.600;4.694;2023-04-05T06:55:50;102421.84;;;4.88;63.52
62725;BME280;49026;52.600;4.694;2023-04-05T06:58:16;102420.16;;;4.96;63.58
62725;BME280;49026;52.600;4.694;2023-04-05T07:00:45;102418.50;;;5.04;62.10
62725;BME280;49026;52.600;4.694;2023-04-05T07:03:11;102409.91;;;5.17;61.76
62725;BME280;49026;52.600;4.694;2023-04-05T07:05:36;102415.22;;;5.27;62.38
62725;BME280;49026;52.600;4.694;2023-04-05T07:08:01;102415.19;;;5.24;61.78
62725;BME280;49026;52.600;4.694;2023-04-05T07:10:29;102416.09;;;5.29;62.45
62725;BME280;49026;52.600;4.694;2023-04-05T07:12:57;102416.16;;;5.35;62.28
62725;BME280;49026;52.600;4.694;2023-04-05T07:15:25;102411.81;;;5.38;62.60
62725;BME280;49026;52.600;4.694;2023-04-05T07:17:50;102410.06;;;5.39;62.00
62725;BME280;49026;52.600;4.694;2023-04-05T07:20:18;102418.78;;;5.44;62.66
62725;BME280;49026;52.600;4.694;2023-04-05T07:22:44;102412.78;;;5.54;62.55
62725;BME280;49026;52.600;4.694;2023-04-05T07:25:09;102411.97;;;5.62;62.40
62725;BME280;49026;52.600;4.694;2023-04-05T07:27:35;102405.09;;;5.82;62.22
62725;BME280;49026;52.600;4.694;2023-04-05T07:30:00;102413.06;;;6.04;62.10
62725;BME280;49026;52.600;4.694;2023-04-05T07:32:25;102413.97;;;6.15;61.50
62725;BME280;49026;52.600;4.694;2023-04-05T07:34:51;102416.59;;;6.17;61.01
62725;BME280;49026;52.600;4.694;2023-04-05T07:37:16;102411.38;;;6.24;61.54
62725;BME280;49026;52.600;4.694;2023-04-05T07:39:44;102405.34;;;6.41;61.87
62725;BME280;49026;52.600;4.694;2023-04-05T07:42:11;102400.16;;;6.59;62.02
62725;BME280;49026;52.600;4.694;2023-04-05T07:44:37;102403.66;;;6.74;60.87
62725;BME280;49026;52.600;4.694;2023-04-05T07:47:04;102407.13;;;6.93;61.53
62725;BME280;49026;52.600;4.694;2023-04-05T07:49:30;102404.53;;;7.13;62.08
62725;BME280;49026;52.600;4.694;2023-04-05T07:51:56;102397.53;;;7.30;60.74
62725;BME280;49026;52.600;4.694;2023-04-05T07:54:22;102392.28;;;7.46;61.26
62725;BME280;49026;52.600;4.694;2023-04-05T07:56:48;102399.19;;;7.70;61.73
62725;BME280;49026;52.600;4.694;2023-04-05T07:59:14;102401.72;;;7.93;61.67
62725;BME280;49026;52.600;4.694;2023-04-05T08:01:41;102397.28;;;8.12;61.29
62725;BME280;49026;52.600;4.694;2023-04-05T08:04:06;102399.81;;;8.24;60.78
62725;BME280;49026;52.600;4.694;2023-04-05T08:06:32;102396.25;;;8.39;61.09
62725;BME280;49026;52.600;4.694;2023-04-05T08:08:57;102393.50;;;8.64;61.85
62725;BME280;49026;52.600;4.694;2023-04-05T08:11:24;102390.78;;;8.75;57.64
62725;BME280;49026;52.600;4.694;2023-04-05T08:13:50;102390.75;;;8.82;59.49
62725;BME280;49026;52.600;4.694;2023-04-05T08:16:18;102394.19;;;8.90;58.09
62725;BME280;49026;52.600;4.694;2023-04-05T08:18:43;102386.13;;;9.11;60.55
62725;BME280;49026;52.600;4.694;2023-04-05T08:21:12;102387.66;;;9.33;59.90
62725;BME280;49026;52.600;4.694;2023-04-05T08:23:39;102385.66;;;9.57;61.37
62725;BME280;49026;52.600;4.694;2023-04-05T08:26:05;102385.63;;;9.60;57.17
62725;BME280;49026;52.600;4.694;2023-04-05T08:28:32;102384.78;;;9.58;57.66
62725;BME280;49026;52.600;4.694;2023-04-05T08:30:57;102385.44;;;9.75;60.20
62725;BME280;49026;52.600;4.694;2023-04-05T08:33:23;102382.63;;;9.91;58.93
62725;BME280;49026;52.600;4.694;2023-04-05T08:35:49;102375.63;;;9.91;57.72
62725;BME280;49026;52.600;4.694;2023-04-05T08:38:17;102380.81;;;9.97;57.28
62725;BME280;49026;52.600;4.694;2023-04-05T08:40:46;102380.59;;;10.13;57.21
62725;BME280;49026;52.600;4.694;2023-04-05T08:43:32;102382.97;;;10.30;58.61
62725;BME280;49026;52.600;4.694;2023-04-05T08:46:02;102374.91;;;10.44;51.47
62725;BME280;49026;52.600;4.694;2023-04-05T08:48:32;102382.03;;;10.35;55.76
62725;BME280;49026;52.600;4.694;2023-04-05T08:51:00;102381.69;;;10.60;57.96
62725;BME280;49026;52.600;4.694;2023-04-05T08:53:25;102378.72;;;10.82;55.01
62725;BME280;49026;52.600;4.694;2023-04-05T08:55:55;102369.50;;;11.07;59.08
62725;BME280;49026;52.600;4.694;2023-04-05T08:58:23;102375.13;;;11.34;58.87
62725;BME280;49026;52.600;4.694;2023-04-05T09:00:52;102375.44;;;11.64;59.74
62725;BME280;49026;52.600;4.694;2023-04-05T09:03:35;102374.91;;;11.90;59.86
62725;BME280;49026;52.600;4.694;2023-04-05T09:06:05;102375.56;;;12.03;59.52
62725;BME280;49026;52.600;4.694;2023-04-05T09:08:33;102386.63;;;12.19;60.18
62725;BME280;49026;52.600;4.694;2023-04-05T09:11:00;102365.03;;;12.40;57.54
62725;BME280;49026;52.600;4.694;2023-04-05T09:13:26;102368.81;;;12.66;58.94
62725;BME280;49026;52.600;4.694;2023-04-05T09:15:51;102367.41;;;12.89;59.05
62725;BME280;49026;52.600;4.694;2023-04-05T09:18:16;102361.94;;;12.96;53.99
62725;BME280;49026;52.600;4.694;2023-04-05T09:20:42;102364.44;;;13.01;54.92
62725;BME280;49026;52.600;4.694;2023-04-05T09:23:07;102353.75;;;13.06;58.97
62725;BME280;49026;52.600;4.694;2023-04-05T09:25:34;102363.00;;;13.22;55.27
62725;BME280;49026;52.600;4.694;2023-04-05T09:28:03;102370.38;;;13.44;55.93
62725;BME280;49026;52.600;4.694;2023-04-05T09:30:29;102362.78;;;13.63;57.99
62725;BME280;49026;52.600;4.694;2023-04-05T09:32:55;102353.34;;;13.85;58.04
62725;BME280;49026;52.600;4.694;2023-04-05T09:35:22;102351.47;;;13.89;53.87
62725;BME280;49026;52.600;4.694;2023-04-05T09:37:54;102352.94;;;13.98;56.74
62725;BME280;49026;52.600;4.694;2023-04-05T09:40:20;102358.84;;;14.07;54.40
62725;BME280;49026;52.600;4.694;2023-04-05T09:42:46;102346.78;;;13.99;49.07
62725;BME280;49026;52.600;4.694;2023-04-05T09:45:12;102344.97;;;13.99;53.99
62725;BME280;49026;52.600;4.694;2023-04-05T09:47:38;102350.13;;;14.04;49.67
62725;BME280;49026;52.600;4.694;2023-04-05T09:50:17;102343.78;;;14.09;45.14
62725;BME280;49026;52.600;4.694;2023-04-05T09:52:43;102352.72;;;14.05;36.33
62725;BME280;49026;52.600;4.694;2023-04-05T09:55:09;102347.34;;;14.08;48.98
62725;BME280;49026;52.600;4.694;2023-04-05T09:57:39;102351.47;;;14.17;44.12
62725;BME280;49026;52.600;4.694;2023-04-05T10:00:15;102345.44;;;13.84;47.13
62725;BME280;49026;52.600;4.694;2023-04-05T10:02:43;102346.56;;;13.77;47.18
62725;BME280;49026;52.600;4.694;2023-04-05T10:05:11;102337.22;;;13.93;51.54
62725;BME280;49026;52.600;4.694;2023-04-05T10:07:42;102329.47;;;14.17;51.14
62725;BME280;49026;52.600;4.694;2023-04-05T10:10:09;102327.41;;;14.53;48.07
62725;BME280;49026;52.600;4.694;2023-04-05T10:12:38;102334.38;;;14.56;47.18
62725;BME280;49026;52.600;4.694;2023-04-05T10:15:08;102319.06;;;14.67;46.09
62725;BME280;49026;52.600;4.694;2023-04-05T10:17:53;102324.25;;;14.70;48.30
62725;BME280;49026;52.600;4.694;2023-04-05T10:20:26;102322.91;;;14.57;50.40
62725;BME280;49026;52.600;4.694;2023-04-05T10:23:06;102321.44;;;14.20;37.16
62725;BME280;49026;52.600;4.694;2023-04-05T10:28:36;102316.56;;;14.34;36.98
62725;BME280;49026;52.600;4.694;2023-04-05T10:31:09;102313.69;;;14.42;46.60
62725;BME280;49026;52.600;4.694;2023-04-05T10:33:42;102311.81;;;14.72;47.97
62725;BME280;49026;52.600;4.694;2023-04-05T10:36:36;102310.59;;;14.82;33.67
62725;BME280;49026;52.600;4.694;2023-04-05T10:39:13;102305.69;;;14.72;46.50
62725;BME280;49026;52.600;4.694;2023-04-05T10:41:48;102309.75;;;14.27;42.52
62725;BME280;49026;52.600;4.694;2023-04-05T10:44:16;102309.09;;;13.92;45.86
62725;BME280;49026;52.600;4.694;2023-04-05T10:46:44;102309.09;;;13.92;47.72
62725;BME280;49026;52.600;4.694;2023-04-05T10:49:21;102303.03;;;14.17;45.98
62725;BME280;49026;52.600;4.694;2023-04-05T10:51:49;102306.41;;;14.22;47.28
62725;BME280;49026;52.600;4.694;2023-04-05T10:54:16;102308.59;;;14.36;44.86
62725;BME280;49026;52.600;4.694;2023-04-05T10:56:43;102293.66;;;14.61;45.60
62725;BME280;49026;52.600;4.694;2023-04-05T10:59:12;102299.34;;;15.01;47.85
62725;BME280;49026;52.600;4.694;2023-04-05T11:01:38;102296.78;;;15.23;45.53
62725;BME280;49026;52.600;4.694;2023-04-05T11:04:14;102297.53;;;15.27;46.17
62725;BME280;49026;52.600;4.694;2023-04-05T11:06:42;102297.75;;;15.46;44.87
62725;BME280;49026;52.600;4.694;2023-04-05T11:09:18;102296.97;;;15.66;46.18
62725;BME280;49026;52.600;4.694;2023-04-05T11:11:50;102292.25;;;15.74;38.70
62725;BME280;49026;52.600;4.694;2023-04-05T11:16:46;102286.88;;;15.77;44.15
62725;BME280;49026;52.600;4.694;2023-04-05T11:19:15;102292.66;;;15.40;33.07
62725;BME280;49026;52.600;4.694;2023-04-05T11:21:40;102280.16;;;15.19;41.59
62725;BME280;49026;52.600;4.694;2023-04-05T11:24:08;102281.16;;;15.17;41.88
62725;BME280;49026;52.600;4.694;2023-04-05T11:29:04;102276.22;;;15.06;41.35
62725;BME280;49026;52.600;4.694;2023-04-05T11:31:32;102277.44;;;14.97;42.38
62725;BME280;49026;52.600;4.694;2023-04-05T11:34:02;102287.41;;;15.62;44.83
62725;BME280;49026;52.600;4.694;2023-04-05T11:42:05;102264.72;;;16.85;44.09
62725;BME280;49026;52.600;4.694;2023-04-05T11:47:05;102269.00;;;17.29;42.94
62725;BME280;49026;52.600;4.694;2023-04-05T11:49:30;102264.88;;;17.22;45.51
62725;BME280;49026;52.600;4.694;2023-04-05T11:52:12;102261.16;;;17.26;46.26
62725;BME280;49026;52.600;4.694;2023-04-05T11:54:41;102259.53;;;16.82;46.69
62725;BME280;49026;52.600;4.694;2023-04-05T11:57:21;102253.66;;;16.13;46.58
62725;BME280;49026;52.600;4.694;2023-04-05T11:59:51;102250.25;;;15.87;47.83
62725;BME280;49026;52.600;4.694;2023-04-05T12:02:17;102248.81;;;15.78;48.99
62725;BME280;49026;52.600;4.694;2023-04-05T12:04:42;102251.84;;;15.91;48.90
62725;BME280;49026;52.600;4.694;2023-04-05T12:07:15;102238.16;;;16.02;48.17
62725;BME280;49026;52.600;4.694;2023-04-05T12:10:09;102237.88;;;15.87;46.26
62725;BME280;49026;52.600;4.694;2023-04-05T12:12:41;102237.31;;;15.79;48.08
62725;BME280;49026;52.600;4.694;2023-04-05T12:15:09;102247.22;;;15.96;48.09
62725;BME280;49026;52.600;4.694;2023-04-05T12:17:37;102229.59;;;16.17;48.44
62725;BME280;49026;52.600;4.694;2023-04-05T12:20:05;102229.66;;;16.57;47.99
62725;BME280;49026;52.600;4.694;2023-04-05T12:22:31;102228.66;;;16.39;47.36
62725;BME280;49026;52.600;4.694;2023-04-05T12:24:56;102231.81;;;16.06;47.85
62725;BME280;49026;52.600;4.694;2023-04-05T12:27:22;102225.56;;;16.07;47.75
62725;BME280;49026;52.600;4.694;2023-04-05T12:30:16;102227.22;;;15.89;47.60
62725;BME280;49026;52.600;4.694;2023-04-05T12:32:53;102222.09;;;15.84;48.14
62725;BME280;49026;52.600;4.694;2023-04-05T12:35:23;102220.97;;;15.90;48.13
62725;BME280;49026;52.600;4.694;2023-04-05T12:37:49;102220.28;;;16.07;48.00
62725;BME280;49026;52.600;4.694;2023-04-05T12:40:22;102218.28;;;16.12;46.74
62725;BME280;49026;52.600;4.694;2023-04-05T12:42:48;102213.88;;;16.13;47.29
62725;BME280;49026;52.600;4.694;2023-04-05T12:45:22;102209.03;;;16.22;46.69
62725;BME280;49026;52.600;4.694;2023-04-05T12:47:55;102206.22;;;16.05;46.46
62725;BME280;49026;52.600;4.694;2023-04-05T12:50:27;102212.78;;;15.96;46.63
62725;BME280;49026;52.600;4.694;2023-04-05T12:52:54;102218.13;;;15.95;46.82
62725;BME280;49026;52.600;4.694;2023-04-05T12:55:19;102210.06;;;15.98;46.49
62725;BME280;49026;52.600;4.694;2023-04-05T12:57:48;102214.66;;;16.15;46.65
62725;BME280;49026;52.600;4.694;2023-04-05T13:00:14;102202.13;;;16.18;45.20
62725;BME280;49026;52.600;4.694;2023-04-05T13:02:40;102198.13;;;15.87;45.47
62725;BME280;49026;52.600;4.694;2023-04-05T13:05:08;102197.84;;;15.93;45.97
62725;BME280;49026;52.600;4.694;2023-04-05T13:07:33;102198.78;;;15.92;43.37
62725;BME280;49026;52.600;4.694;2023-04-05T13:10:00;102191.22;;;15.60;44.80
62725;BME280;49026;52.600;4.694;2023-04-05T13:12:28;102192.25;;;15.79;45.72
62725;BME280;49026;52.600;4.694;2023-04-05T13:14:54;102194.72;;;16.26;45.15
62725;BME280;49026;52.600;4.694;2023-04-05T13:17:19;102187.09;;;16.60;45.70
62725;BME280;49026;52.600;4.694;2023-04-05T13:19:44;102190.72;;;16.16;44.62
62725;BME280;49026;52.600;4.694;2023-04-05T13:22:14;102187.19;;;15.95;45.13
62725;BME280;49026;52.600;4.694;2023-04-05T13:24:40;102179.44;;;15.67;43.89
62725;BME280;49026;52.600;4.694;2023-04-05T13:27:05;102179.78;;;15.37;44.70